sensor_id;sensor_type;location;lat;lon;timestamp;temperature;humidity
67196;DHT22;54122;53.538;49.366;2023-01-15T00:01:40;-9.90;65.60
67196;DHT22;54122;53.538;49.366;2023-01-15T00:04:07;-9.90;65.60
67196;DHT22;54122;53.538;49.366;2023-01-15T00:06:38;-9.90;65.60
67196;DHT22;54122;53.538;49.366;2023-01-15T00:09:06;-9.90;65.60
67196;DHT22;54122;53.538;49.366;2023-01-15T00:11:32;-10.00;65.50
67196;DHT22;54122;53.538;49.366;2023-01-15T00:13:59;-10.00;65.60
67196;DHT22;54122;53.538;49.366;2023-01-15T00:16:25;-10.00;65.70
67196;DHT22;54122;53.538;49.366;2023-01-15T00:18:57;-10.00;65.60
67196;DHT22;54122;53.538;49.366;2023-01-15T00:21:25;-10.00;65.60
67196;DHT22;54122;53.538;49.366;2023-01-15T00:23:52;-10.00;65.50
67196;DHT22;54122;53.538;49.366;2023-01-15T00:26:37;-10.00;65.40
67196;DHT22;54122;53.538;49.366;2023-01-15T00:29:23;-10.00;65.60
67196;DHT22;54122;53.538;49.366;2023-01-15T00:32:01;-10.00;65.50
67196;DHT22;54122;53.538;49.366;2023-01-15T00:34:28;-10.10;65.50
67196;DHT22;54122;53.538;49.366;2023-01-15T00:36:55;-10.10;65.50
67196;DHT22;54122;53.538;49.366;2023-01-15T00:39:22;-10.10;65.60
67196;DHT22;54122;53.538;49.366;2023-01-15T00:41:52;-10.10;65.70
67196;DHT22;54122;53.538;49.366;2023-01-15T00:44:19;-10.10;65.50
67196;DHT22;54122;53.538;49.366;2023-01-15T00:46:45;-10.20;65.50
67196;DHT22;54122;53.538;49.366;2023-01-15T00:49:12;-10.20;65.60
67196;DHT22;54122;53.538;49.366;2023-01-15T00:51:38;-10.20;65.70
67196;DHT22;54122;53.538;49.366;2023-01-15T00:54:05;-10.20;65.70
67196;DHT22;54122;53.538;49.366;2023-01-15T00:56:31;-10.20;65.70
67196;DHT22;54122;53.538;49.366;2023-01-15T00:58:59;-10.20;65.50
67196;DHT22;54122;53.538;49.366;2023-01-15T01:01:25;-10.20;65.40
67196;DHT22;54122;53.538;49.366;2023-01-15T01:03:52;-10.20;65.40
67196;DHT22;54122;53.538;49.366;2023-01-15T01:06:19;-10.20;65.40
67196;DHT22;54122;53.538;49.366;2023-01-15T01:08:46;-10.30;65.50
67196;DHT22;54122;53.538;49.366;2023-01-15T01:11:15;-10.40;65.50
67196;DHT22;54122;53.538;49.366;2023-01-15T01:13:42;-10.40;65.70
67196;DHT22;54122;53.538;49.366;2023-01-15T01:16:35;-10.40;65.70
67196;DHT22;54122;53.538;49.366;2023-01-15T01:19:08;-10.40;65.70
67196;DHT22;54122;53.538;49.366;2023-01-15T01:21:39;-10.40;65.70
67196;DHT22;54122;53.538;49.366;2023-01-15T01:24:06;-10.40;65.70
67196;DHT22;54122;53.538;49.366;2023-01-15T01:26:33;-10.40;65.70
67196;DHT22;54122;53.538;49.366;2023-01-15T01:29:00;-10.40;65.60
67196;DHT22;54122;53.538;49.366;2023-01-15T01:31:26;-10.40;65.60
67196;DHT22;54122;53.538;49.366;2023-01-15T01:33:54;-10.40;65.60
67196;DHT22;54122;53.538;49.366;2023-01-15T01:36:29;-10.40;65.50
67196;DHT22;54122;53.538;49.366;2023-01-15T01:38:56;-10.50;65.40
67196;DHT22;54122;53.538;49.366;2023-01-15T01:41:22;-10.50;65.50
67196;DHT22;54122;53.538;49.366;2023-01-15T01:46:27;-10.70;65.50
67196;DHT22;54122;53.538;49.366;2023-01-15T01:48:58;-10.80;65.70
67196;DHT22;54122;53.538;49.366;2023-01-15T01:51:27;-10.80;66.00
67196;DHT22;54122;53.538;49.366;2023-01-15T01:53:55;-10.70;66.00
67196;DHT22;54122;53.538;49.366;2023-01-15T01:56:23;-10.70;66.90
67196;DHT22;54122;53.538;49.366;2023-01-15T01:58:52;-10.70;65.70
67196;DHT22;54122;53.538;49.366;2023-01-15T02:01:21;-10.70;65.70
67196;DHT22;54122;53.538;49.366;2023-01-15T02:03:49;-10.70;65.70
67196;DHT22;54122;53.538;49.366;2023-01-15T02:06:15;-10.70;65.70
67196;DHT22;54122;53.538;49.366;2023-01-15T02:08:41;-10.80;65.50
67196;DHT22;54122;53.538;49.366;2023-01-15T02:11:13;-10.90;65.60
67196;DHT22;54122;53.538;49.366;2023-01-15T02:13:57;-11.00;65.70
67196;DHT22;54122;53.538;49.366;2023-01-15T02:16:41;-11.10;65.80
67196;DHT22;54122;53.538;49.366;2023-01-15T02:22:09;-11.20;66.30
67196;DHT22;54122;53.538;49.366;2023-01-15T02:27:18;-11.20;66.30
67196;DHT22;54122;53.538;49.366;2023-01-15T02:30:17;-11.30;66.30
67196;DHT22;54122;53.538;49.366;2023-01-15T02:33:07;-11.30;66.40
67196;DHT22;54122;53.538;49.366;2023-01-15T02:35:39;-11.40;66.40
67196;DHT22;54122;53.538;49.366;2023-01-15T02:38:09;-11.50;66.40
67196;DHT22;54122;53.538;49.366;2023-01-15T02:40:38;-11.50;66.50
67196;DHT22;54122;53.538;49.366;2023-01-15T02:43:06;-11.60;66.60
67196;DHT22;54122;53.538;49.366;2023-01-15T02:45:35;-11.70;66.70
67196;DHT22;54122;53.538;49.366;2023-01-15T02:48:13;-11.70;67.00
67196;DHT22;54122;53.538;49.366;2023-01-15T02:50:43;-11.70;67.00
67196;DHT22;54122;53.538;49.366;2023-01-15T02:53:16;-11.80;67.00
67196;DHT22;54122;53.538;49.366;2023-01-15T02:55:47;-11.80;67.10
67196;DHT22;54122;53.538;49.366;2023-01-15T02:58:18;-11.90;67.20
67196;DHT22;54122;53.538;49.366;2023-01-15T03:00:48;-11.90;67.40
67196;DHT22;54122;53.538;49.366;2023-01-15T03:03:23;-11.90;67.50
67196;DHT22;54122;53.538;49.366;2023-01-15T03:05:57;-11.90;67.60
67196;DHT22;54122;53.538;49.366;2023-01-15T03:08:25;-11.80;67.70
67196;DHT22;54122;53.538;49.366;2023-01-15T03:13:26;-11.70;67.50
67196;DHT22;54122;53.538;49.366;2023-01-15T03:16:37;-11.70;67.60
67196;DHT22;54122;53.538;49.366;2023-01-15T03:21:43;-11.50;67.40
67196;DHT22;54122;53.538;49.366;2023-01-15T03:24:14;-11.50;67.20
67196;DHT22;54122;53.538;49.366;2023-01-15T03:26:43;-11.50;67.20
67196;DHT22;54122;53.538;49.366;2023-01-15T03:29:10;-11.50;67.10
67196;DHT22;54122;53.538;49.366;2023-01-15T03:31:37;-11.40;67.20
67196;DHT22;54122;53.538;49.366;2023-01-15T03:34:03;-11.40;67.20
67196;DHT22;54122;53.538;49.366;2023-01-15T03:36:32;-11.40;67.20
67196;DHT22;54122;53.538;49.366;2023-01-15T03:38:59;-11.40;67.20
67196;DHT22;54122;53.538;49.366;2023-01-15T03:44:35;-11.40;67.20
67196;DHT22;54122;53.538;49.366;2023-01-15T03:47:17;-11.40;67.20
67196;DHT22;54122;53.538;49.366;2023-01-15T03:55:14;-11.40;67.20
67196;DHT22;54122;53.538;49.366;2023-01-15T03:57:47;-11.50;67.20
67196;DHT22;54122;53.538;49.366;2023-01-15T04:00:25;-11.50;67.20
67196;DHT22;54122;53.538;49.366;2023-01-15T04:02:54;-11.50;67.10
67196;DHT22;54122;53.538;49.366;2023-01-15T04:05:22;-11.50;67.20
67196;DHT22;54122;53.538;49.366;2023-01-15T04:07:49;-11.50;67.20
67196;DHT22;54122;53.538;49.366;2023-01-15T04:10:16;-11.50;67.10
67196;DHT22;54122;53.538;49.366;2023-01-15T04:12:42;-11.50;67.20
67196;DHT22;54122;53.538;49.366;2023-01-15T04:15:11;-11.50;67.10
67196;DHT22;54122;53.538;49.366;2023-01-15T04:17:37;-11.50;67.20
67196;DHT22;54122;53.538;49.366;2023-01-15T04:20:04;-11.50;67.20
67196;DHT22;54122;53.538;49.366;2023-01-15T04:22:30;-11.40;67.20
67196;DHT22;54122;53.538;49.366;2023-01-15T04:24:56;-11.50;67.20
67196;DHT22;54122;53.538;49.366;2023-01-15T04:27:22;-11.50;67.10
67196;DHT22;54122;53.538;49.366;2023-01-15T04:29:48;-11.50;67.20
67196;DHT22;54122;53.538;49.366;2023-01-15T04:32:15;-11.50;67.20
67196;DHT22;54122;53.538;49.366;2023-01-15T04:34:41;-11.50;67.30
67196;DHT22;54122;53.538;49.366;2023-01-15T04:37:07;-11.50;67.40
67196;DHT22;54122;53.538;49.366;2023-01-15T04:39:33;-11.40;67.30
67196;DHT22;54122;53.538;49.366;2023-01-15T04:41:59;-11.40;67.30
67196;DHT22;54122;53.538;49.366;2023-01-15T04:44:44;-11.40;67.30
67196;DHT22;54122;53.538;49.366;2023-01-15T04:47:10;-11.30;67.20
67196;DHT22;54122;53.538;49.366;2023-01-15T04:49:36;-11.20;67.20
67196;DHT22;54122;53.538;49.366;2023-01-15T04:52:03;-11.20;67.10
67196;DHT22;54122;53.538;49.366;2023-01-15T04:54:29;-11.20;66.90
67196;DHT22;54122;53.538;49.366;2023-01-15T04:56:55;-11.10;66.90
67196;DHT22;54122;53.538;49.366;2023-01-15T04:59:26;-11.10;66.80
67196;DHT22;54122;53.538;49.366;2023-01-15T05:01:52;-11.10;66.80
67196;DHT22;54122;53.538;49.366;2023-01-15T05:04:19;-11.10;66.70
67196;DHT22;54122;53.538;49.366;2023-01-15T05:06:45;-11.10;66.70
67196;DHT22;54122;53.538;49.366;2023-01-15T05:09:11;-11.00;66.80
67196;DHT22;54122;53.538;49.366;2023-01-15T05:11:38;-11.00;66.60
67196;DHT22;54122;53.538;49.366;2023-01-15T05:14:06;-11.00;66.60
67196;DHT22;54122;53.538;49.366;2023-01-15T05:16:32;-10.90;66.50
67196;DHT22;54122;53.538;49.366;2023-01-15T05:19:01;-10.90;66.40
67196;DHT22;54122;53.538;49.366;2023-01-15T05:21:33;-10.90;66.40
67196;DHT22;54122;53.538;49.366;2023-01-15T05:24:02;-10.80;66.50
67196;DHT22;54122;53.538;49.366;2023-01-15T05:26:31;-10.80;66.40
67196;DHT22;54122;53.538;49.366;2023-01-15T05:28:58;-10.70;66.30
67196;DHT22;54122;53.538;49.366;2023-01-15T05:31:25;-10.70;66.20
67196;DHT22;54122;53.538;49.366;2023-01-15T05:33:53;-10.70;66.10
67196;DHT22;54122;53.538;49.366;2023-01-15T05:36:21;-10.70;66.10
67196;DHT22;54122;53.538;49.366;2023-01-15T05:38:49;-10.60;66.20
67196;DHT22;54122;53.538;49.366;2023-01-15T05:41:17;-10.60;66.00
67196;DHT22;54122;53.538;49.366;2023-01-15T05:44:26;-10.50;66.00
67196;DHT22;54122;53.538;49.366;2023-01-15T05:46:58;-10.50;66.00
67196;DHT22;54122;53.538;49.366;2023-01-15T05:49:26;-10.50;65.80
67196;DHT22;54122;53.538;49.366;2023-01-15T05:51:53;-10.40;65.80
67196;DHT22;54122;53.538;49.366;2023-01-15T05:54:24;-10.40;65.80
67196;DHT22;54122;53.538;49.366;2023-01-15T05:56:51;-10.30;65.70
67196;DHT22;54122;53.538;49.366;2023-01-15T05:59:19;-10.20;65.60
67196;DHT22;54122;53.538;49.366;2023-01-15T06:01:46;-10.10;65.30
67196;DHT22;54122;53.538;49.366;2023-01-15T06:04:13;-10.10;65.10
67196;DHT22;54122;53.538;49.366;2023-01-15T06:06:40;-10.00;65.10
67196;DHT22;54122;53.538;49.366;2023-01-15T06:09:07;-10.00;65.10
67196;DHT22;54122;53.538;49.366;2023-01-15T06:11:33;-9.90;65.10
67196;DHT22;54122;53.538;49.366;2023-01-15T06:14:00;-9.70;65.10
67196;DHT22;54122;53.538;49.366;2023-01-15T06:16:26;-9.50;64.50
67196;DHT22;54122;53.538;49.366;2023-01-15T06:18:52;-9.10;64.90
67196;DHT22;54122;53.538;49.366;2023-01-15T06:21:19;-8.30;64.90
67196;DHT22;54122;53.538;49.366;2023-01-15T06:23:47;-7.40;63.50
67196;DHT22;54122;53.538;49.366;2023-01-15T06:26:15;-6.70;61.20
67196;DHT22;54122;53.538;49.366;2023-01-15T06:28:42;-6.10;60.00
67196;DHT22;54122;53.538;49.366;2023-01-15T06:31:11;-5.50;57.90
67196;DHT22;54122;53.538;49.366;2023-01-15T06:33:37;-5.10;56.00
67196;DHT22;54122;53.538;49.366;2023-01-15T06:36:07;-4.90;53.80
67196;DHT22;54122;53.538;49.366;2023-01-15T06:38:33;-4.70;52.60
67196;DHT22;54122;53.538;49.366;2023-01-15T06:41:00;-4.60;51.40
67196;DHT22;54122;53.538;49.366;2023-01-15T06:43:27;-4.40;51.50
67196;DHT22;54122;53.538;49.366;2023-01-15T06:46:12;-4.30;50.60
67196;DHT22;54122;53.538;49.366;2023-01-15T06:48:57;-4.20;49.60
67196;DHT22;54122;53.538;49.366;2023-01-15T06:51:23;-4.00;49.60
67196;DHT22;54122;53.538;49.366;2023-01-15T06:53:50;-3.80;49.10
67196;DHT22;54122;53.538;49.366;2023-01-15T06:56:16;-3.60;48.70
67196;DHT22;54122;53.538;49.366;2023-01-15T06:58:43;-3.50;47.90
67196;DHT22;54122;53.538;49.366;2023-01-15T07:01:14;-3.40;46.90
67196;DHT22;54122;53.538;49.366;2023-01-15T07:03:40;-3.40;46.60
67196;DHT22;54122;53.538;49.366;2023-01-15T07:06:11;-3.50;46.80
67196;DHT22;54122;53.538;49.366;2023-01-15T07:08:39;-3.50;46.40
67196;DHT22;54122;53.538;49.366;2023-01-15T07:11:08;-3.60;45.70
67196;DHT22;54122;53.538;49.366;2023-01-15T07:13:34;-3.70;45.50
67196;DHT22;54122;53.538;49.366;2023-01-15T07:16:02;-3.70;46.00
67196;DHT22;54122;53.538;49.366;2023-01-15T07:18:30;-3.50;46.40
67196;DHT22;54122;53.538;49.366;2023-01-15T07:20:58;-3.30;46.20
67196;DHT22;54122;53.538;49.366;2023-01-15T07:23:25;-3.20;45.20
67196;DHT22;54122;53.538;49.366;2023-01-15T07:25:52;-3.10;45.50
67196;DHT22;54122;53.538;49.366;2023-01-15T07:28:20;-2.90;45.40
67196;DHT22;54122;53.538;49.366;2023-01-15T07:30:47;-2.70;45.00
67196;DHT22;54122;53.538;49.366;2023-01-15T07:33:13;-2.70;44.20
67196;DHT22;54122;53.538;49.366;2023-01-15T07:35:39;-2.60;44.30
67196;DHT22;54122;53.538;49.366;2023-01-15T07:38:06;-2.50;44.30
67196;DHT22;54122;53.538;49.366;2023-01-15T07:40:32;-2.50;43.80
67196;DHT22;54122;53.538;49.366;2023-01-15T07:42:58;-2.50;43.10
67196;DHT22;54122;53.538;49.366;2023-01-15T07:45:43;-2.50;43.10
67196;DHT22;54122;53.538;49.366;2023-01-15T07:48:27;-2.50;42.80
67196;DHT22;54122;53.538;49.366;2023-01-15T07:51:12;-2.50;42.70
67196;DHT22;54122;53.538;49.366;2023-01-15T07:53:38;-2.70;42.50
67196;DHT22;54122;53.538;49.366;2023-01-15T07:56:04;-2.60;42.80
67196;DHT22;54122;53.538;49.366;2023-01-15T07:58:31;-2.60;42.70
67196;DHT22;54122;53.538;49.366;2023-01-15T08:00:57;-2.60;41.90
67196;DHT22;54122;53.538;49.366;2023-01-15T08:03:24;-2.80;41.80
67196;DHT22;54122;53.538;49.366;2023-01-15T08:05:50;-2.80;42.50
67196;DHT22;54122;53.538;49.366;2023-01-15T08:08:17;-2.80;42.20
67196;DHT22;54122;53.538;49.366;2023-01-15T08:10:43;-2.80;42.50
67196;DHT22;54122;53.538;49.366;2023-01-15T08:13:28;-2.80;42.40
67196;DHT22;54122;53.538;49.366;2023-01-15T08:16:12;-2.90;41.80
67196;DHT22;54122;53.538;49.366;2023-01-15T08:18:39;-3.00;42.00
67196;DHT22;54122;53.538;49.366;2023-01-15T08:21:05;-3.00;42.10
67196;DHT22;54122;53.538;49.366;2023-01-15T08:23:31;-3.00;42.20
67196;DHT22;54122;53.538;49.366;2023-01-15T08:26:01;-2.90;42.10
67196;DHT22;54122;53.538;49.366;2023-01-15T08:28:27;-2.90;42.20
67196;DHT22;54122;53.538;49.366;2023-01-15T08:30:54;-2.80;42.60
67196;DHT22;54122;53.538;49.366;2023-01-15T08:33:20;-2.70;42.30
67196;DHT22;54122;53.538;49.366;2023-01-15T08:35:46;-2.50;42.30
67196;DHT22;54122;53.538;49.366;2023-01-15T08:38:13;-2.50;41.60
67196;DHT22;54122;53.538;49.366;2023-01-15T08:40:39;-2.60;41.30
67196;DHT22;54122;53.538;49.366;2023-01-15T08:43:27;-2.70;41.50
67196;DHT22;54122;53.538;49.366;2023-01-15T08:45:58;-2.80;41.60
67196;DHT22;54122;53.538;49.366;2023-01-15T08:48:25;-2.80;41.60
67196;DHT22;54122;53.538;49.366;2023-01-15T08:50:52;-2.80;41.70
67196;DHT22;54122;53.538;49.366;2023-01-15T08:53:18;-2.80;41.50
67196;DHT22;54122;53.538;49.366;2023-01-15T08:55:47;-3.00;41.40
67196;DHT22;54122;53.538;49.366;2023-01-15T08:58:14;-3.10;41.50
67196;DHT22;54122;53.538;49.366;2023-01-15T09:00:41;-3.20;41.30
67196;DHT22;54122;53.538;49.366;2023-01-15T09:03:07;-3.30;41.90
67196;DHT22;54122;53.538;49.366;2023-01-15T09:05:36;-3.30;42.00
67196;DHT22;54122;53.538;49.366;2023-01-15T09:08:04;-3.30;41.90
67196;DHT22;54122;53.538;49.366;2023-01-15T09:10:30;-3.40;41.90
67196;DHT22;54122;53.538;49.366;2023-01-15T09:13:00;-3.40;42.10
67196;DHT22;54122;53.538;49.366;2023-01-15T09:15:28;-3.40;42.10
67196;DHT22;54122;53.538;49.366;2023-01-15T09:17:55;-3.30;42.60
67196;DHT22;54122;53.538;49.366;2023-01-15T09:20:22;-3.20;42.60
67196;DHT22;54122;53.538;49.366;2023-01-15T09:22:48;-3.00;42.70
67196;DHT22;54122;53.538;49.366;2023-01-15T09:25:15;-2.90;42.00
67196;DHT22;54122;53.538;49.366;2023-01-15T09:27:41;-3.00;41.70
67196;DHT22;54122;53.538;49.366;2023-01-15T09:30:15;-3.10;41.70
67196;DHT22;54122;53.538;49.366;2023-01-15T09:32:41;-3.10;41.70
67196;DHT22;54122;53.538;49.366;2023-01-15T09:35:10;-3.30;41.70
67196;DHT22;54122;53.538;49.366;2023-01-15T09:37:37;-3.40;41.90
67196;DHT22;54122;53.538;49.366;2023-01-15T09:40:06;-3.50;42.20
67196;DHT22;54122;53.538;49.366;2023-01-15T09:42:54;-3.50;42.80
67196;DHT22;54122;53.538;49.366;2023-01-15T09:45:39;-3.60;42.60
67196;DHT22;54122;53.538;49.366;2023-01-15T09:48:33;-3.70;42.60
67196;DHT22;54122;53.538;49.366;2023-01-15T09:54:04;-3.90;42.80
67196;DHT22;54122;53.538;49.366;2023-01-15T09:56:35;-3.90;43.60
67196;DHT22;54122;53.538;49.366;2023-01-15T09:59:36;-4.00;43.50
67196;DHT22;54122;53.538;49.366;2023-01-15T10:02:38;-4.00;43.90
67196;DHT22;54122;53.538;49.366;2023-01-15T10:05:16;-3.90;44.00
67196;DHT22;54122;53.538;49.366;2023-01-15T10:10:21;-4.10;43.80
67196;DHT22;54122;53.538;49.366;2023-01-15T10:12:53;-4.20;44.00
67196;DHT22;54122;53.538;49.366;2023-01-15T10:15:41;-4.20;44.00
67196;DHT22;54122;53.538;49.366;2023-01-15T10:18:18;-4.30;44.20
67196;DHT22;54122;53.538;49.366;2023-01-15T10:21:16;-4.30;44.20
67196;DHT22;54122;53.538;49.366;2023-01-15T10:26:56;-4.50;44.00
67196;DHT22;54122;53.538;49.366;2023-01-15T10:29:48;-4.50;44.60
67196;DHT22;54122;53.538;49.366;2023-01-15T10:37:39;-4.60;44.70
67196;DHT22;54122;53.538;49.366;2023-01-15T10:50:43;-4.60;45.00
67196;DHT22;54122;53.538;49.366;2023-01-15T10:55:54;-4.60;45.40
67196;DHT22;54122;53.538;49.366;2023-01-15T10:58:49;-4.60;45.50
67196;DHT22;54122;53.538;49.366;2023-01-15T11:01:20;-4.60;45.70
67196;DHT22;54122;53.538;49.366;2023-01-15T11:03:49;-4.70;45.70
67196;DHT22;54122;53.538;49.366;2023-01-15T11:06:20;-4.80;45.70
67196;DHT22;54122;53.538;49.366;2023-01-15T11:08:55;-4.80;46.10
67196;DHT22;54122;53.538;49.366;2023-01-15T11:11:23;-4.90;46.20
67196;DHT22;54122;53.538;49.366;2023-01-15T11:14:09;-4.90;46.50
67196;DHT22;54122;53.538;49.366;2023-01-15T11:16:54;-4.90;46.50
67196;DHT22;54122;53.538;49.366;2023-01-15T11:19:41;-4.90;46.80
67196;DHT22;54122;53.538;49.366;2023-01-15T11:22:15;-5.00;46.70
67196;DHT22;54122;53.538;49.366;2023-01-15T11:24:50;-5.10;46.70
67196;DHT22;54122;53.538;49.366;2023-01-15T11:27:20;-5.10;47.00
67196;DHT22;54122;53.538;49.366;2023-01-15T11:29:53;-5.20;47.20
67196;DHT22;54122;53.538;49.366;2023-01-15T11:32:35;-5.20;47.40
67196;DHT22;54122;53.538;49.366;2023-01-15T11:37:39;-5.30;47.60
67196;DHT22;54122;53.538;49.366;2023-01-15T11:40:14;-5.40;47.60
67196;DHT22;54122;53.538;49.366;2023-01-15T11:42:46;-5.50;47.80
67196;DHT22;54122;53.538;49.366;2023-01-15T11:45:31;-5.60;48.00
67196;DHT22;54122;53.538;49.366;2023-01-15T11:48:19;-5.70;48.30
67196;DHT22;54122;53.538;49.366;2023-01-15T11:53:48;-5.90;48.60
67196;DHT22;54122;53.538;49.366;2023-01-15T11:56:20;-6.00;48.70
67196;DHT22;54122;53.538;49.366;2023-01-15T11:58:50;-6.10;48.80
67196;DHT22;54122;53.538;49.366;2023-01-15T12:01:32;-6.10;49.10
67196;DHT22;54122;53.538;49.366;2023-01-15T12:04:03;-6.10;49.20
67196;DHT22;54122;53.538;49.366;2023-01-15T12:06:30;-6.20;49.10
67196;DHT22;54122;53.538;49.366;2023-01-15T12:24:03;-6.50;49.40
67196;DHT22;54122;53.538;49.366;2023-01-15T12:26:28;-6.60;49.30
67196;DHT22;54122;53.538;49.366;2023-01-15T12:29:11;-6.60;49.30
67196;DHT22;54122;53.538;49.366;2023-01-15T12:31:58;-6.60;49.50
67196;DHT22;54122;53.538;49.366;2023-01-15T12:37:14;-6.80;49.60
67196;DHT22;54122;53.538;49.366;2023-01-15T12:40:07;-6.80;49.80
67196;DHT22;54122;53.538;49.366;2023-01-15T12:42:45;-6.90;49.80
67196;DHT22;54122;53.538;49.366;2023-01-15T12:45:45;-6.90;49.90
67196;DHT22;54122;53.538;49.366;2023-01-15T12:48:31;-7.00;49.90
67196;DHT22;54122;53.538;49.366;2023-01-15T12:51:02;-7.00;49.90
67196;DHT22;54122;53.538;49.366;2023-01-15T12:53:52;-7.00;49.70
67196;DHT22;54122;53.538;49.366;2023-01-15T12:56:46;-6.90;49.60
67196;DHT22;54122;53.538;49.366;2023-01-15T12:59:24;-6.90;49.40
67196;DHT22;54122;53.538;49.366;2023-01-15T13:10:03;-6.90;49.00
67196;DHT22;54122;53.538;49.366;2023-01-15T13:12:33;-6.90;49.00
67196;DHT22;54122;53.538;49.366;2023-01-15T13:15:01;-6.90;49.10
67196;DHT22;54122;53.538;49.366;2023-01-15T13:17:50;-6.90;49.00
67196;DHT22;54122;53.538;49.366;2023-01-15T13:20:27;-6.90;48.70
67196;DHT22;54122;53.538;49.366;2023-01-15T13:26:28;-6.60;48.00
67196;DHT22;54122;53.538;49.366;2023-01-15T13:31:55;-6.60;47.60
67196;DHT22;54122;53.538;49.366;2023-01-15T13:39:55;-6.60;47.00
67196;DHT22;54122;53.538;49.366;2023-01-15T13:42:24;-6.60;46.90
67196;DHT22;54122;53.538;49.366;2023-01-15T13:45:06;-6.50;46.90
67196;DHT22;54122;53.538;49.366;2023-01-15T13:47:49;-6.50;46.80
67196;DHT22;54122;53.538;49.366;2023-01-15T13:50:30;-6.60;46.50
67196;DHT22;54122;53.538;49.366;2023-01-15T13:53:02;-6.60;46.70
67196;DHT22;54122;53.538;49.366;2023-01-15T13:55:36;-6.60;46.70
67196;DHT22;54122;53.538;49.366;2023-01-15T13:58:20;-6.60;46.60
67196;DHT22;54122;53.538;49.366;2023-01-15T14:00:47;-6.60;46.70
67196;DHT22;54122;53.538;49.366;2023-01-15T14:03:26;-6.70;46.90
67196;DHT22;54122;53.538;49.366;2023-01-15T14:05:58;-6.70;47.00
67196;DHT22;54122;53.538;49.366;2023-01-15T14:08:26;-6.70;47.00
67196;DHT22;54122;53.538;49.366;2023-01-15T14:10:53;-6.80;47.10
67196;DHT22;54122;53.538;49.366;2023-01-15T14:16:22;-6.80;47.50
67196;DHT22;54122;53.538;49.366;2023-01-15T14:22:07;-6.80;47.30
67196;DHT22;54122;53.538;49.366;2023-01-15T14:24:53;-6.80;47.40
67196;DHT22;54122;53.538;49.366;2023-01-15T14:27:42;-6.80;47.40
67196;DHT22;54122;53.538;49.366;2023-01-15T14:30:50;-6.80;47.40
67196;DHT22;54122;53.538;49.366;2023-01-15T14:36:29;-6.90;48.00
67196;DHT22;54122;53.538;49.366;2023-01-15T14:39:00;-7.00;48.00
67196;DHT22;54122;53.538;49.366;2023-01-15T14:41:33;-7.00;49.30
67196;DHT22;54122;53.538;49.366;2023-01-15T14:44:31;-7.00;48.30
67196;DHT22;54122;53.538;49.366;2023-01-15T14:47:03;-7.00;48.40
67196;DHT22;54122;53.538;49.366;2023-01-15T14:49:43;-7.00;48.40
67196;DHT22;54122;53.538;49.366;2023-01-15T14:52:21;-7.00;48.50
67196;DHT22;54122;53.538;49.366;2023-01-15T14:54:48;-7.10;48.50
67196;DHT22;54122;53.538;49.366;2023-01-15T14:57:15;-7.00;48.70
67196;DHT22;54122;53.538;49.366;2023-01-15T14:59:48;-7.10;48.70
67196;DHT22;54122;53.538;49.366;2023-01-15T15:02:24;-7.00;50.00
67196;DHT22;54122;53.538;49.366;2023-01-15T15:04:57;-7.10;49.00
67196;DHT22;54122;53.538;49.366;2023-01-15T15:07:26;-7.10;49.00
67196;DHT22;54122;53.538;49.366;2023-01-15T15:10:08;-7.10;49.00
67196;DHT22;54122;53.538;49.366;2023-01-15T15:12:56;-7.10;49.00
67196;DHT22;54122;53.538;49.366;2023-01-15T15:17:58;-7.10;49.00
67196;DHT22;54122;53.538;49.366;2023-01-15T15:20:50;-7.10;49.00
67196;DHT22;54122;53.538;49.366;2023-01-15T15:25:50;-7.20;49.30
67196;DHT22;54122;53.538;49.366;2023-01-15T15:28:19;-7.30;49.60
67196;DHT22;54122;53.538;49.366;2023-01-15T15:30:47;-7.30;49.60
67196;DHT22;54122;53.538;49.366;2023-01-15T15:33:25;-7.30;49.70
67196;DHT22;54122;53.538;49.366;2023-01-15T15:35:55;-7.30;49.80
67196;DHT22;54122;53.538;49.366;2023-01-15T15:38:23;-7.40;49.90
67196;DHT22;54122;53.538;49.366;2023-01-15T15:40:55;-7.40;50.10
67196;DHT22;54122;53.538;49.366;2023-01-15T15:43:26;-7.50;50.20
67196;DHT22;54122;53.538;49.366;2023-01-15T15:46:26;-7.50;50.40
67196;DHT22;54122;53.538;49.366;2023-01-15T15:49:11;-7.50;50.40
67196;DHT22;54122;53.538;49.366;2023-01-15T15:51:49;-7.50;50.40
67196;DHT22;54122;53.538;49.366;2023-01-15T15:59:36;-7.50;50.20
67196;DHT22;54122;53.538;49.366;2023-01-15T16:02:16;-7.40;50.20
67196;DHT22;54122;53.538;49.366;2023-01-15T16:04:48;-7.40;50.10
67196;DHT22;54122;53.538;49.366;2023-01-15T16:07:33;-7.40;50.10
67196;DHT22;54122;53.538;49.366;2023-01-15T16:12:46;-7.40;50.30
67196;DHT22;54122;53.538;49.366;2023-01-15T16:15:20;-7.50;50.50
67196;DHT22;54122;53.538;49.366;2023-01-15T16:17:47;-7.60;50.50
67196;DHT22;54122;53.538;49.366;2023-01-15T16:20:16;-7.60;50.80
67196;DHT22;54122;53.538;49.366;2023-01-15T16:22:54;-7.70;51.10
67196;DHT22;54122;53.538;49.366;2023-01-15T16:25:30;-7.80;51.20
67196;DHT22;54122;53.538;49.366;2023-01-15T16:27:58;-7.80;51.30
67196;DHT22;54122;53.538;49.366;2023-01-15T16:30:25;-7.80;51.40
67196;DHT22;54122;53.538;49.366;2023-01-15T16:32:53;-7.90;51.50
67196;DHT22;54122;53.538;49.366;2023-01-15T16:35:24;-8.00;51.50
67196;DHT22;54122;53.538;49.366;2023-01-15T16:37:56;-8.00;51.80
67196;DHT22;54122;53.538;49.366;2023-01-15T16:40:27;-8.00;51.80
67196;DHT22;54122;53.538;49.366;2023-01-15T16:43:14;-8.20;51.90
67196;DHT22;54122;53.538;49.366;2023-01-15T16:46:00;-8.20;52.20
67196;DHT22;54122;53.538;49.366;2023-01-15T16:48:33;-8.30;52.40
67196;DHT22;54122;53.538;49.366;2023-01-15T16:54:01;-8.50;52.90
67196;DHT22;54122;53.538;49.366;2023-01-15T16:59:17;-8.80;53.20
67196;DHT22;54122;53.538;49.366;2023-01-15T17:01:45;-8.90;53.60
67196;DHT22;54122;53.538;49.366;2023-01-15T17:04:30;-9.10;53.90
67196;DHT22;54122;53.538;49.366;2023-01-15T17:07:15;-9.10;54.20
67196;DHT22;54122;53.538;49.366;2023-01-15T17:09:48;-9.20;54.40
67196;DHT22;54122;53.538;49.366;2023-01-15T17:12:28;-9.20;54.90
67196;DHT22;54122;53.538;49.366;2023-01-15T17:17:49;-9.00;55.00
67196;DHT22;54122;53.538;49.366;2023-01-15T17:20:17;-9.00;55.10
67196;DHT22;54122;53.538;49.366;2023-01-15T17:22:45;-9.00;55.20
67196;DHT22;54122;53.538;49.366;2023-01-15T17:25:31;-9.10;54.90
67196;DHT22;54122;53.538;49.366;2023-01-15T17:28:00;-9.20;54.90
67196;DHT22;54122;53.538;49.366;2023-01-15T17:30:27;-9.40;55.20
67196;DHT22;54122;53.538;49.366;2023-01-15T17:33:04;-9.50;55.60
67196;DHT22;54122;53.538;49.366;2023-01-15T17:35:33;-9.60;55.80
67196;DHT22;54122;53.538;49.366;2023-01-15T17:38:00;-9.80;56.10
67196;DHT22;54122;53.538;49.366;2023-01-15T17:40:26;-9.90;56.40
67196;DHT22;54122;53.538;49.366;2023-01-15T17:42:52;-10.00;56.70
67196;DHT22;54122;53.538;49.366;2023-01-15T17:47:50;-10.20;57.20